sensor_id;sensor_type;location;lat;lon;timestamp;P1;durP1;ratioP1;P2;durP2;ratioP2
20287;SDS011;10303;51.960;8.372;2023-06-10T00:02:11;3.20;;;2.87;;
20287;SDS011;10303;51.960;8.372;2023-06-10T00:04:37;3.37;;;3.07;;
20287;SDS011;10303;51.960;8.372;2023-06-10T00:07:04;6.67;;;2.70;;
20287;SDS011;10303;51.960;8.372;2023-06-10T00:09:34;6.00;;;3.10;;
20287;SDS011;10303;51.960;8.372;2023-06-10T00:12:05;3.23;;;2.93;;
20287;SDS011;10303;51.960;8.372;2023-06-10T00:14:33;3.57;;;2.10;;
20287;SDS011;10303;51.960;8.372;2023-06-10T00:17:02;2.90;;;2.70;;
20287;SDS011;10303;51.960;8.372;2023-06-10T00:19:28;3.10;;;2.80;;
20287;SDS011;10303;51.960;8.372;2023-06-10T00:21:57;3.07;;;2.77;;
20287;SDS011;10303;51.960;8.372;2023-06-10T00:24:23;2.77;;;2.57;;
20287;SDS011;10303;51.960;8.372;2023-06-10T00:26:50;2.73;;;2.53;;
20287;SDS011;10303;51.960;8.372;2023-06-10T00:29:16;3.50;;;3.20;;
20287;SDS011;10303;51.960;8.372;2023-06-10T00:31:44;2.70;;;2.50;;
20287;SDS011;10303;51.960;8.372;2023-06-10T00:34:12;3.30;;;3.00;;
20287;SDS011;10303;51.960;8.372;2023-06-10T00:36:38;2.63;;;2.43;;
20287;SDS011;10303;51.960;8.372;2023-06-10T00:39:04;2.30;;;2.10;;
20287;SDS011;10303;51.960;8.372;2023-06-10T00:41:31;3.20;;;2.73;;
20287;SDS011;10303;51.960;8.372;2023-06-10T00:43:59;2.37;;;2.17;;
20287;SDS011;10303;51.960;8.372;2023-06-10T00:46:25;3.30;;;2.63;;
20287;SDS011;10303;51.960;8.372;2023-06-10T00:48:54;2.33;;;2.13;;
20287;SDS011;10303;51.960;8.372;2023-06-10T00:51:21;2.67;;;2.47;;
20287;SDS011;10303;51.960;8.372;2023-06-10T00:53:48;2.53;;;2.33;;
20287;SDS011;10303;51.960;8.372;2023-06-10T00:56:14;3.37;;;2.70;;
20287;SDS011;10303;51.960;8.372;2023-06-10T00:58:41;2.57;;;2.37;;
20287;SDS011;10303;51.960;8.372;2023-06-10T01:01:07;2.20;;;2.10;;
20287;SDS011;10303;51.960;8.372;2023-06-10T01:03:36;3.97;;;2.30;;
20287;SDS011;10303;51.960;8.372;2023-06-10T01:06:13;3.30;;;2.40;;
20287;SDS011;10303;51.960;8.372;2023-06-10T01:08:49;3.10;;;2.80;;
20287;SDS011;10303;51.960;8.372;2023-06-10T01:14:46;2.30;;;2.10;;
20287;SDS011;10303;51.960;8.372;2023-06-10T01:17:14;2.67;;;1.80;;
20287;SDS011;10303;51.960;8.372;2023-06-10T01:19:41;2.43;;;2.23;;
20287;SDS011;10303;51.960;8.372;2023-06-10T01:22:09;2.40;;;2.30;;
20287;SDS011;10303;51.960;8.372;2023-06-10T01:24:36;2.30;;;2.00;;
20287;SDS011;10303;51.960;8.372;2023-06-10T01:27:07;2.00;;;1.90;;
20287;SDS011;10303;51.960;8.372;2023-06-10T01:29:46;2.10;;;1.90;;
20287;SDS011;10303;51.960;8.372;2023-06-10T01:32:30;2.00;;;1.80;;
20287;SDS011;10303;51.960;8.372;2023-06-10T01:35:02;2.20;;;2.00;;
20287;SDS011;10303;51.960;8.372;2023-06-10T01:37:31;1.83;;;1.73;;
20287;SDS011;10303;51.960;8.372;2023-06-10T01:39:59;2.23;;;2.03;;
20287;SDS011;10303;51.960;8.372;2023-06-10T01:42:31;2.13;;;1.80;;
20287;SDS011;10303;51.960;8.372;2023-06-10T01:44:58;3.03;;;2.00;;
20287;SDS011;10303;51.960;8.372;2023-06-10T01:47:24;2.27;;;2.07;;
20287;SDS011;10303;51.960;8.372;2023-06-10T01:49:51;2.43;;;2.07;;
20287;SDS011;10303;51.960;8.372;2023-06-10T01:52:18;2.20;;;2.00;;
20287;SDS011;10303;51.960;8.372;2023-06-10T01:54:43;2.37;;;1.90;;
20287;SDS011;10303;51.960;8.372;2023-06-10T01:57:10;3.47;;;2.17;;
20287;SDS011;10303;51.960;8.372;2023-06-10T01:59:36;2.27;;;2.07;;
20287;SDS011;10303;51.960;8.372;2023-06-10T02:02:03;2.93;;;2.30;;
20287;SDS011;10303;51.960;8.372;2023-06-10T02:04:31;2.70;;;1.93;;
20287;SDS011;10303;51.960;8.372;2023-06-10T02:06:59;1.97;;;1.77;;
20287;SDS011;10303;51.960;8.372;2023-06-10T02:09:30;1.87;;;1.77;;
20287;SDS011;10303;51.960;8.372;2023-06-10T02:11:57;2.00;;;1.80;;
20287;SDS011;10303;51.960;8.372;2023-06-10T02:14:23;2.10;;;1.90;;
20287;SDS011;10303;51.960;8.372;2023-06-10T02:16:49;2.63;;;2.40;;
20287;SDS011;10303;51.960;8.372;2023-06-10T02:19:16;2.20;;;1.97;;
20287;SDS011;10303;51.960;8.372;2023-06-10T02:21:42;3.53;;;2.13;;
20287;SDS011;10303;51.960;8.372;2023-06-10T02:24:08;2.47;;;1.90;;
20287;SDS011;10303;51.960;8.372;2023-06-10T02:26:34;1.70;;;1.60;;
20287;SDS011;10303;51.960;8.372;2023-06-10T02:29:01;2.43;;;1.70;;
20287;SDS011;10303;51.960;8.372;2023-06-10T02:31:27;2.10;;;1.77;;
20287;SDS011;10303;51.960;8.372;2023-06-10T02:33:54;1.77;;;1.67;;
20287;SDS011;10303;51.960;8.372;2023-06-10T02:36:21;1.90;;;1.73;;
20287;SDS011;10303;51.960;8.372;2023-06-10T02:38:49;2.23;;;2.03;;
20287;SDS011;10303;51.960;8.372;2023-06-10T02:41:16;1.77;;;1.67;;
20287;SDS011;10303;51.960;8.372;2023-06-10T02:43:44;1.77;;;1.67;;
20287;SDS011;10303;51.960;8.372;2023-06-10T02:46:10;3.50;;;1.87;;
20287;SDS011;10303;51.960;8.372;2023-06-10T02:48:43;2.07;;;1.97;;
20287;SDS011;10303;51.960;8.372;2023-06-10T02:51:13;2.87;;;2.00;;
20287;SDS011;10303;51.960;8.372;2023-06-10T02:53:43;1.87;;;1.77;;
20287;SDS011;10303;51.960;8.372;2023-06-10T02:56:11;2.63;;;2.43;;
20287;SDS011;10303;51.960;8.372;2023-06-10T02:58:38;1.80;;;1.53;;
20287;SDS011;10303;51.960;8.372;2023-06-10T03:01:05;3.07;;;1.57;;
20287;SDS011;10303;51.960;8.372;2023-06-10T03:03:41;2.00;;;1.80;;
20287;SDS011;10303;51.960;8.372;2023-06-10T03:06:10;1.73;;;1.60;;
20287;SDS011;10303;51.960;8.372;2023-06-10T03:08:38;2.53;;;1.87;;
20287;SDS011;10303;51.960;8.372;2023-06-10T03:11:12;2.13;;;2.03;;
20287;SDS011;10303;51.960;8.372;2023-06-10T03:13:38;3.67;;;1.87;;
20287;SDS011;10303;51.960;8.372;2023-06-10T03:16:07;2.20;;;2.00;;
20287;SDS011;10303;51.960;8.372;2023-06-10T03:18:36;2.13;;;1.80;;
20287;SDS011;10303;51.960;8.372;2023-06-10T03:21:02;2.13;;;1.90;;
20287;SDS011;10303;51.960;8.372;2023-06-10T03:23:29;3.17;;;2.50;;
20287;SDS011;10303;51.960;8.372;2023-06-10T03:25:55;2.13;;;1.50;;
20287;SDS011;10303;51.960;8.372;2023-06-10T03:28:22;2.20;;;1.80;;
20287;SDS011;10303;51.960;8.372;2023-06-10T03:30:48;2.03;;;1.50;;
20287;SDS011;10303;51.960;8.372;2023-06-10T03:33:14;1.90;;;1.70;;
20287;SDS011;10303;51.960;8.372;2023-06-10T03:35:41;1.77;;;1.67;;
20287;SDS011;10303;51.960;8.372;2023-06-10T03:38:07;1.63;;;1.50;;
20287;SDS011;10303;51.960;8.372;2023-06-10T03:40:33;2.90;;;1.70;;
20287;SDS011;10303;51.960;8.372;2023-06-10T03:43:00;2.83;;;1.70;;
20287;SDS011;10303;51.960;8.372;2023-06-10T03:45:27;2.47;;;2.27;;
20287;SDS011;10303;51.960;8.372;2023-06-10T03:47:57;1.90;;;1.80;;
20287;SDS011;10303;51.960;8.372;2023-06-10T03:50:29;1.93;;;1.83;;
20287;SDS011;10303;51.960;8.372;2023-06-10T03:52:55;3.00;;;2.40;;
20287;SDS011;10303;51.960;8.372;2023-06-10T03:55:24;2.23;;;2.00;;
20287;SDS011;10303;51.960;8.372;2023-06-10T03:57:50;2.97;;;1.83;;
20287;SDS011;10303;51.960;8.372;2023-06-10T04:00:17;3.43;;;2.37;;
20287;SDS011;10303;51.960;8.372;2023-06-10T04:02:46;2.13;;;1.93;;
20287;SDS011;10303;51.960;8.372;2023-06-10T04:05:23;9.00;;;2.30;;
20287;SDS011;10303;51.960;8.372;2023-06-10T04:07:51;2.23;;;1.93;;
20287;SDS011;10303;51.960;8.372;2023-06-10T04:10:17;1.63;;;1.53;;
20287;SDS011;10303;51.960;8.372;2023-06-10T04:12:43;2.03;;;1.50;;
20287;SDS011;10303;51.960;8.372;2023-06-10T04:15:10;1.97;;;1.77;;
20287;SDS011;10303;51.960;8.372;2023-06-10T04:17:37;1.80;;;1.70;;
20287;SDS011;10303;51.960;8.372;2023-06-10T04:20:03;1.90;;;1.70;;
20287;SDS011;10303;51.960;8.372;2023-06-10T04:22:33;2.37;;;1.80;;
20287;SDS011;10303;51.960;8.372;2023-06-10T04:24:59;1.63;;;1.53;;
20287;SDS011;10303;51.960;8.372;2023-06-10T04:27:25;2.43;;;1.63;;
20287;SDS011;10303;51.960;8.372;2023-06-10T04:29:51;1.97;;;1.57;;
20287;SDS011;10303;51.960;8.372;2023-06-10T04:32:18;1.97;;;1.87;;
20287;SDS011;10303;51.960;8.372;2023-06-10T04:34:44;1.33;;;1.23;;
20287;SDS011;10303;51.960;8.372;2023-06-10T04:37:10;1.80;;;1.60;;
20287;SDS011;10303;51.960;8.372;2023-06-10T04:39:35;1.87;;;1.57;;
20287;SDS011;10303;51.960;8.372;2023-06-10T04:42:02;1.73;;;1.63;;
20287;SDS011;10303;51.960;8.372;2023-06-10T04:44:28;2.00;;;1.87;;
20287;SDS011;10303;51.960;8.372;2023-06-10T04:46:56;2.20;;;1.77;;
20287;SDS011;10303;51.960;8.372;2023-06-10T04:49:22;2.97;;;2.13;;
20287;SDS011;10303;51.960;8.372;2023-06-10T04:51:48;2.53;;;1.83;;
20287;SDS011;10303;51.960;8.372;2023-06-10T04:54:15;2.13;;;1.90;;
20287;SDS011;10303;51.960;8.372;2023-06-10T04:56:41;4.07;;;2.20;;
20287;SDS011;10303;51.960;8.372;2023-06-10T04:59:06;1.53;;;1.40;;
20287;SDS011;10303;51.960;8.372;2023-06-10T05:01:32;1.80;;;1.70;;
20287;SDS011;10303;51.960;8.372;2023-06-10T05:03:58;2.50;;;1.57;;
20287;SDS011;10303;51.960;8.372;2023-06-10T05:06:24;3.00;;;2.17;;
20287;SDS011;10303;51.960;8.372;2023-06-10T05:08:50;1.60;;;1.50;;
20287;SDS011;10303;51.960;8.372;2023-06-10T05:11:16;1.97;;;1.77;;
20287;SDS011;10303;51.960;8.372;2023-06-10T05:13:42;2.60;;;1.97;;
20287;SDS011;10303;51.960;8.372;2023-06-10T05:16:09;5.23;;;1.80;;
20287;SDS011;10303;51.960;8.372;2023-06-10T05:18:35;2.40;;;1.97;;
20287;SDS011;10303;51.960;8.372;2023-06-10T05:21:01;2.53;;;2.00;;
20287;SDS011;10303;51.960;8.372;2023-06-10T05:23:27;2.23;;;2.03;;
20287;SDS011;10303;51.960;8.372;2023-06-10T05:25:54;3.20;;;2.30;;
20287;SDS011;10303;51.960;8.372;2023-06-10T05:28:20;3.57;;;2.60;;
20287;SDS011;10303;51.960;8.372;2023-06-10T05:30:46;2.63;;;2.17;;
20287;SDS011;10303;51.960;8.372;2023-06-10T05:33:12;2.70;;;2.43;;
20287;SDS011;10303;51.960;8.372;2023-06-10T05:35:37;2.03;;;1.80;;
20287;SDS011;10303;51.960;8.372;2023-06-10T05:38:04;2.43;;;2.23;;
20287;SDS011;10303;51.960;8.372;2023-06-10T05:40:30;2.27;;;2.07;;
20287;SDS011;10303;51.960;8.372;2023-06-10T05:42:56;2.20;;;2.00;;
20287;SDS011;10303;51.960;8.372;2023-06-10T05:45:22;1.73;;;1.63;;
20287;SDS011;10303;51.960;8.372;2023-06-10T05:47:48;6.47;;;2.13;;
20287;SDS011;10303;51.960;8.372;2023-06-10T05:50:14;1.97;;;1.87;;
20287;SDS011;10303;51.960;8.372;2023-06-10T05:52:40;2.13;;;1.47;;
20287;SDS011;10303;51.960;8.372;2023-06-10T05:55:06;2.57;;;1.97;;
20287;SDS011;10303;51.960;8.372;2023-06-10T05:57:33;2.13;;;2.00;;
20287;SDS011;10303;51.960;8.372;2023-06-10T05:59:59;1.93;;;1.80;;
20287;SDS011;10303;51.960;8.372;2023-06-10T06:02:25;2.40;;;1.83;;
20287;SDS011;10303;51.960;8.372;2023-06-10T06:04:51;2.17;;;1.80;;
20287;SDS011;10303;51.960;8.372;2023-06-10T06:07:16;2.70;;;2.20;;
20287;SDS011;10303;51.960;8.372;2023-06-10T06:09:46;2.67;;;1.97;;
20287;SDS011;10303;51.960;8.372;2023-06-10T06:12:12;2.43;;;2.20;;
20287;SDS011;10303;51.960;8.372;2023-06-10T06:14:39;3.83;;;1.90;;
20287;SDS011;10303;51.960;8.372;2023-06-10T06:17:05;1.80;;;1.53;;
20287;SDS011;10303;51.960;8.372;2023-06-10T06:19:32;2.20;;;1.57;;
20287;SDS011;10303;51.960;8.372;2023-06-10T06:21:59;2.33;;;1.93;;
20287;SDS011;10303;51.960;8.372;2023-06-10T06:24:24;3.33;;;1.57;;
20287;SDS011;10303;51.960;8.372;2023-06-10T06:26:50;2.30;;;1.80;;
20287;SDS011;10303;51.960;8.372;2023-06-10T06:29:17;1.80;;;1.70;;
20287;SDS011;10303;51.960;8.372;2023-06-10T06:31:43;1.60;;;1.50;;
20287;SDS011;10303;51.960;8.372;2023-06-10T06:34:09;3.13;;;1.73;;
20287;SDS011;10303;51.960;8.372;2023-06-10T06:36:35;1.80;;;1.70;;
20287;SDS011;10303;51.960;8.372;2023-06-10T06:39:01;1.97;;;1.77;;
20287;SDS011;10303;51.960;8.372;2023-06-10T06:41:28;1.63;;;1.53;;
20287;SDS011;10303;51.960;8.372;2023-06-10T06:43:54;1.60;;;1.50;;
20287;SDS011;10303;51.960;8.372;2023-06-10T06:46:29;1.23;;;1.13;;
20287;SDS011;10303;51.960;8.372;2023-06-10T06:48:55;1.53;;;1.43;;
20287;SDS011;10303;51.960;8.372;2023-06-10T06:51:21;1.70;;;1.57;;
20287;SDS011;10303;51.960;8.372;2023-06-10T06:53:46;2.20;;;1.47;;
20287;SDS011;10303;51.960;8.372;2023-06-10T06:56:15;2.33;;;1.70;;
20287;SDS011;10303;51.960;8.372;2023-06-10T06:58:41;2.60;;;1.40;;
20287;SDS011;10303;51.960;8.372;2023-06-10T07:01:07;1.50;;;1.33;;
20287;SDS011;10303;51.960;8.372;2023-06-10T07:03:33;1.30;;;1.20;;
20287;SDS011;10303;51.960;8.372;2023-06-10T07:05:59;2.20;;;1.50;;
20287;SDS011;10303;51.960;8.372;2023-06-10T07:08:25;2.70;;;1.90;;
20287;SDS011;10303;51.960;8.372;2023-06-10T07:10:51;2.45;;;1.33;;
20287;SDS011;10303;51.960;8.372;2023-06-10T07:13:17;1.77;;;1.65;;
20287;SDS011;10303;51.960;8.372;2023-06-10T07:15:43;1.77;;;1.63;;
20287;SDS011;10303;51.960;8.372;2023-06-10T07:18:09;1.40;;;1.30;;
20287;SDS011;10303;51.960;8.372;2023-06-10T07:20:35;2.78;;;1.30;;
20287;SDS011;10303;51.960;8.372;2023-06-10T07:23:01;1.85;;;1.75;;
20287;SDS011;10303;51.960;8.372;2023-06-10T07:25:27;1.55;;;1.40;;
20287;SDS011;10303;51.960;8.372;2023-06-10T07:27:53;2.92;;;1.80;;
20287;SDS011;10303;51.960;8.372;2023-06-10T07:30:19;1.73;;;1.58;;
20287;SDS011;10303;51.960;8.372;2023-06-10T07:32:45;1.38;;;1.15;;
20287;SDS011;10303;51.960;8.372;2023-06-10T07:35:11;1.25;;;1.25;;
20287;SDS011;10303;51.960;8.372;2023-06-10T07:37:37;2.03;;;1.45;;
20287;SDS011;10303;51.960;8.372;2023-06-10T07:40:04;1.58;;;1.40;;
20287;SDS011;10303;51.960;8.372;2023-06-10T07:42:34;1.35;;;1.25;;
20287;SDS011;10303;51.960;8.372;2023-06-10T07:45:04;1.27;;;1.17;;
20287;SDS011;10303;51.960;8.372;2023-06-10T07:47:32;1.30;;;1.20;;
20287;SDS011;10303;51.960;8.372;2023-06-10T07:50:00;1.20;;;1.10;;
20287;SDS011;10303;51.960;8.372;2023-06-10T07:52:26;1.42;;;1.33;;
20287;SDS011;10303;51.960;8.372;2023-06-10T07:54:53;4.53;;;1.70;;
20287;SDS011;10303;51.960;8.372;2023-06-10T07:57:19;2.15;;;2.03;;
20287;SDS011;10303;51.960;8.372;2023-06-10T07:59:45;1.60;;;1.50;;
20287;SDS011;10303;51.960;8.372;2023-06-10T08:02:11;2.33;;;1.70;;
20287;SDS011;10303;51.960;8.372;2023-06-10T08:04:37;1.50;;;1.40;;
20287;SDS011;10303;51.960;8.372;2023-06-10T08:07:03;2.65;;;2.15;;
20287;SDS011;10303;51.960;8.372;2023-06-10T08:09:29;1.77;;;1.52;;
20287;SDS011;10303;51.960;8.372;2023-06-10T08:11:55;1.90;;;1.80;;
20287;SDS011;10303;51.960;8.372;2023-06-10T08:14:21;2.78;;;1.90;;
20287;SDS011;10303;51.960;8.372;2023-06-10T08:16:47;2.45;;;1.70;;
20287;SDS011;10303;51.960;8.372;2023-06-10T08:19:13;2.35;;;1.90;;
20287;SDS011;10303;51.960;8.372;2023-06-10T08:21:39;2.13;;;1.90;;
20287;SDS011;10303;51.960;8.372;2023-06-10T08:24:05;2.15;;;1.95;;
20287;SDS011;10303;51.960;8.372;2023-06-10T08:26:32;6.05;;;1.98;;
20287;SDS011;10303;51.960;8.372;2023-06-10T08:28:58;1.98;;;1.67;;
20287;SDS011;10303;51.960;8.372;2023-06-10T08:31:24;1.60;;;1.50;;
20287;SDS011;10303;51.960;8.372;2023-06-10T08:33:50;1.85;;;1.75;;
20287;SDS011;10303;51.960;8.372;2023-06-10T08:36:16;2.78;;;2.35;;
20287;SDS011;10303;51.960;8.372;2023-06-10T08:38:42;4.40;;;3.45;;
20287;SDS011;10303;51.960;8.372;2023-06-10T08:41:08;4.18;;;1.75;;
20287;SDS011;10303;51.960;8.372;2023-06-10T08:43:41;1.98;;;1.80;;
20287;SDS011;10303;51.960;8.372;2023-06-10T08:46:19;2.42;;;2.20;;
20287;SDS011;10303;51.960;8.372;2023-06-10T08:48:45;1.60;;;1.50;;
20287;SDS011;10303;51.960;8.372;2023-06-10T08:51:20;1.90;;;1.80;;
20287;SDS011;10303;51.960;8.372;2023-06-10T08:53:53;2.50;;;1.92;;
20287;SDS011;10303;51.960;8.372;2023-06-10T08:56:28;2.85;;;1.88;;
20287;SDS011;10303;51.960;8.372;2023-06-10T08:58:57;6.22;;;2.35;;
20287;SDS011;10303;51.960;8.372;2023-06-10T09:01:24;2.30;;;2.10;;
20287;SDS011;10303;51.960;8.372;2023-06-10T09:03:51;2.67;;;2.42;;
20287;SDS011;10303;51.960;8.372;2023-06-10T09:06:18;3.30;;;2.05;;
20287;SDS011;10303;51.960;8.372;2023-06-10T09:08:44;2.08;;;1.88;;
20287;SDS011;10303;51.960;8.372;2023-06-10T09:11:10;2.28;;;1.75;;
20287;SDS011;10303;51.960;8.372;2023-06-10T09:13:36;1.90;;;1.80;;
20287;SDS011;10303;51.960;8.372;2023-06-10T09:16:02;2.60;;;2.35;;
20287;SDS011;10303;51.960;8.372;2023-06-10T09:18:29;2.38;;;2.17;;
20287;SDS011;10303;51.960;8.372;2023-06-10T09:20:56;1.92;;;1.70;;
20287;SDS011;10303;51.960;8.372;2023-06-10T09:23:22;2.38;;;2.28;;
20287;SDS011;10303;51.960;8.372;2023-06-10T09:25:55;2.13;;;2.00;;
20287;SDS011;10303;51.960;8.372;2023-06-10T09:28:25;2.45;;;2.25;;
20287;SDS011;10303;51.960;8.372;2023-06-10T09:31:01;2.88;;;1.75;;
20287;SDS011;10303;51.960;8.372;2023-06-10T09:33:32;2.97;;;2.17;;
20287;SDS011;10303;51.960;8.372;2023-06-10T09:35:59;2.45;;;2.25;;
20287;SDS011;10303;51.960;8.372;2023-06-10T09:38:31;3.20;;;2.67;;
20287;SDS011;10303;51.960;8.372;2023-06-10T09:40:59;2.90;;;2.45;;
20287;SDS011;10303;51.960;8.372;2023-06-10T09:43:37;5.22;;;2.47;;
20287;SDS011;10303;51.960;8.372;2023-06-10T09:48:43;2.42;;;2.22;;
20287;SDS011;10303;51.960;8.372;2023-06-10T09:51:11;2.05;;;1.95;;
20287;SDS011;10303;51.960;8.372;2023-06-10T09:53:47;1.92;;;1.80;;
20287;SDS011;10303;51.960;8.372;2023-06-10T09:56:16;2.28;;;2.08;;
20287;SDS011;10303;51.960;8.372;2023-06-10T09:58:42;3.15;;;1.90;;
20287;SDS011;10303;51.960;8.372;2023-06-10T10:01:11;2.22;;;2.13;;
20287;SDS011;10303;51.960;8.372;2023-06-10T10:03:46;5.32;;;2.42;;
20287;SDS011;10303;51.960;8.372;2023-06-10T10:06:14;2.05;;;1.95;;
20287;SDS011;10303;51.960;8.372;2023-06-10T10:08:42;2.53;;;2.33;;
20287;SDS011;10303;51.960;8.372;2023-06-10T10:11:10;4.70;;;2.03;;
20287;SDS011;10303;51.960;8.372;2023-06-10T10:13:37;1.83;;;1.73;;
20287;SDS011;10303;51.960;8.372;2023-06-10T10:16:04;4.30;;;1.95;;
20287;SDS011;10303;51.960;8.372;2023-06-10T10:18:38;2.25;;;2.05;;
20287;SDS011;10303;51.960;8.372;2023-06-10T10:21:12;2.22;;;2.08;;
20287;SDS011;10303;51.960;8.372;2023-06-10T10:26:33;2.28;;;1.95;;
20287;SDS011;10303;51.960;8.372;2023-06-10T10:31:54;2.17;;;2.03;;
20287;SDS011;10303;51.960;8.372;2023-06-10T10:34:30;2.47;;;2.28;;
20287;SDS011;10303;51.960;8.372;2023-06-10T10:37:12;2.42;;;2.17;;
20287;SDS011;10303;51.960;8.372;2023-06-10T10:39:38;2.72;;;2.55;;
20287;SDS011;10303;51.960;8.372;2023-06-10T10:42:05;2.30;;;2.10;;
20287;SDS011;10303;51.960;8.372;2023-06-10T10:44:36;2.70;;;2.00;;
20287;SDS011;10303;51.960;8.372;2023-06-10T10:47:04;3.20;;;2.72;;
20287;SDS011;10303;51.960;8.372;2023-06-10T10:49:35;2.63;;;2.42;;
20287;SDS011;10303;51.960;8.372;2023-06-10T10:52:03;2.78;;;2.58;;
20287;SDS011;10303;51.960;8.372;2023-06-10T10:54:33;3.08;;;2.60;;
20287;SDS011;10303;51.960;8.372;2023-06-10T10:59:46;3.10;;;2.35;;
20287;SDS011;10303;51.960;8.372;2023-06-10T11:02:42;2.30;;;2.20;;
20287;SDS011;10303;51.960;8.372;2023-06-10T11:05:13;2.03;;;1.92;;
20287;SDS011;10303;51.960;8.372;2023-06-10T11:07:51;3.10;;;2.55;;
20287;SDS011;10303;51.960;8.372;2023-06-10T11:10:32;2.60;;;2.40;;
20287;SDS011;10303;51.960;8.372;2023-06-10T11:13:13;2.97;;;2.75;;
20287;SDS011;10303;51.960;8.372;2023-06-10T11:15:44;2.72;;;2.50;;
20287;SDS011;10303;51.960;8.372;2023-06-10T11:20:55;2.95;;;2.75;;
20287;SDS011;10303;51.960;8.372;2023-06-10T11:34:00;2.88;;;2.60;;
20287;SDS011;10303;51.960;8.372;2023-06-10T11:36:32;2.78;;;2.58;;
20287;SDS011;10303;51.960;8.372;2023-06-10T11:39:05;2.67;;;2.47;;
20287;SDS011;10303;51.960;8.372;2023-06-10T11:41:33;3.45;;;2.70;;
20287;SDS011;10303;51.960;8.372;2023-06-10T11:44:04;3.78;;;3.00;;
20287;SDS011;10303;51.960;8.372;2023-06-10T11:46:34;4.63;;;3.50;;
20287;SDS011;10303;51.960;8.372;2023-06-10T11:49:00;3.90;;;3.30;;
20287;SDS011;10303;51.960;8.372;2023-06-10T11:51:29;3.22;;;2.92;;
20287;SDS011;10303;51.960;8.372;2023-06-10T11:54:02;3.05;;;2.75;;
20287;SDS011;10303;51.960;8.372;2023-06-10T11:56:30;2.97;;;2.78;;
20287;SDS011;10303;51.960;8.372;2023-06-10T11:59:06;3.25;;;2.80;;
20287;SDS011;10303;51.960;8.372;2023-06-10T12:01:36;3.10;;;2.90;;
20287;SDS011;10303;51.960;8.372;2023-06-10T12:04:09;2.83;;;2.63;;
20287;SDS011;10303;51.960;8.372;2023-06-10T12:11:48;3.05;;;2.83;;
20287;SDS011;10303;51.960;8.372;2023-06-10T12:19:57;2.50;;;2.40;;
20287;SDS011;10303;51.960;8.372;2023-06-10T12:22:25;3.03;;;2.83;;
20287;SDS011;10303;51.960;8.372;2023-06-10T12:24:58;3.03;;;2.83;;
20287;SDS011;10303;51.960;8.372;2023-06-10T12:27:26;3.13;;;2.10;;
20287;SDS011;10303;51.960;8.372;2023-06-10T12:29:55;2.63;;;2.42;;
20287;SDS011;10303;51.960;8.372;2023-06-10T12:32:36;2.90;;;2.70;;
20287;SDS011;10303;51.960;8.372;2023-06-10T12:35:10;3.95;;;3.10;;
20287;SDS011;10303;51.960;8.372;2023-06-10T12:37:55;3.00;;;2.80;;
20287;SDS011;10303;51.960;8.372;2023-06-10T12:40:32;2.83;;;2.67;;
20287;SDS011;10303;51.960;8.372;2023-06-10T12:43:02;3.33;;;3.13;;
20287;SDS011;10303;51.960;8.372;2023-06-10T12:45:31;2.83;;;2.60;;
20287;SDS011;10303;51.960;8.372;2023-06-10T12:48:06;3.20;;;2.90;;
20287;SDS011;10303;51.960;8.372;2023-06-10T12:50:35;3.40;;;3.10;;
20287;SDS011;10303;51.960;8.372;2023-06-10T12:53:03;7.32;;;3.03;;
20287;SDS011;10303;51.960;8.372;2023-06-10T12:55:29;3.15;;;2.85;;
20287;SDS011;10303;51.960;8.372;2023-06-10T12:57:55;2.72;;;2.53;;
20287;SDS011;10303;51.960;8.372;2023-06-10T13:00:22;3.65;;;3.28;;
20287;SDS011;10303;51.960;8.372;2023-06-10T13:02:51;3.22;;;3.03;;
20287;SDS011;10303;51.960;8.372;2023-06-10T13:05:18;2.88;;;2.67;;
20287;SDS011;10303;51.960;8.372;2023-06-10T13:07:45;2.70;;;2.50;;
20287;SDS011;10303;51.960;8.372;2023-06-10T13:10:12;2.60;;;2.50;;
20287;SDS011;10303;51.960;8.372;2023-06-10T13:12:41;3.55;;;3.25;;
20287;SDS011;10303;51.960;8.372;2023-06-10T13:15:08;3.25;;;2.97;;
20287;SDS011;10303;51.960;8.372;2023-06-10T13:17:35;4.20;;;3.03;;
20287;SDS011;10303;51.960;8.372;2023-06-10T13:20:03;3.05;;;2.85;;
20287;SDS011;10303;51.960;8.372;2023-06-10T13:22:30;3.47;;;3.08;;
20287;SDS011;10303;51.960;8.372;2023-06-10T13:24:58;3.00;;;2.72;;
20287;SDS011;10303;51.960;8.372;2023-06-10T13:27:25;3.42;;;2.75;;
20287;SDS011;10303;51.960;8.372;2023-06-10T13:29:50;3.58;;;3.17;;
20287;SDS011;10303;51.960;8.372;2023-06-10T13:32:16;3.10;;;2.90;;
20287;SDS011;10303;51.960;8.372;2023-06-10T13:34:43;3.30;;;3.10;;
20287;SDS011;10303;51.960;8.372;2023-06-10T13:37:09;23.88;;;4.40;;
20287;SDS011;10303;51.960;8.372;2023-06-10T13:39:35;3.45;;;3.15;;
20287;SDS011;10303;51.960;8.372;2023-06-10T13:42:01;2.90;;;2.70;;
20287;SDS011;10303;51.960;8.372;2023-06-10T13:44:28;3.03;;;2.83;;
20287;SDS011;10303;51.960;8.372;2023-06-10T13:46:56;3.08;;;2.88;;
20287;SDS011;10303;51.960;8.372;2023-06-10T13:49:22;2.85;;;2.65;;
20287;SDS011;10303;51.960;8.372;2023-06-10T13:51:48;3.58;;;2.47;;
20287;SDS011;10303;51.960;8.372;2023-06-10T13:54:13;3.10;;;2.90;;
20287;SDS011;10303;51.960;8.372;2023-06-10T13:56:40;3.17;;;2.97;;
20287;SDS011;10303;51.960;8.372;2023-06-10T13:59:07;3.40;;;3.10;;
20287;SDS011;10303;51.960;8.372;2023-06-10T14:01:33;2.90;;;2.70;;
20287;SDS011;10303;51.960;8.372;2023-06-10T14:04:00;4.43;;;3.03;;
20287;SDS011;10303;51.960;8.372;2023-06-10T14:06:26;3.03;;;2.83;;
20287;SDS011;10303;51.960;8.372;2023-06-10T14:08:52;3.15;;;2.95;;
20287;SDS011;10303;51.960;8.372;2023-06-10T14:11:22;2.95;;;2.75;;
20287;SDS011;10303;51.960;8.372;2023-06-10T14:13:48;3.63;;;3.33;;
20287;SDS011;10303;51.960;8.372;2023-06-10T14:16:14;3.95;;;3.65;;
20287;SDS011;10303;51.960;8.372;2023-06-10T14:18:40;4.03;;;3.72;;
20287;SDS011;10303;51.960;8.372;2023-06-10T14:21:06;3.85;;;3.65;;
20287;SDS011;10303;51.960;8.372;2023-06-10T14:23:33;3.90;;;3.22;;
20287;SDS011;10303;51.960;8.372;2023-06-10T14:25:59;4.50;;;4.10;;
20287;SDS011;10303;51.960;8.372;2023-06-10T14:28:26;3.60;;;3.30;;
20287;SDS011;10303;51.960;8.372;2023-06-10T14:30:52;3.30;;;3.00;;
20287;SDS011;10303;51.960;8.372;2023-06-10T14:33:18;5.43;;;3.60;;
20287;SDS011;10303;51.960;8.372;2023-06-10T14:35:44;3.65;;;3.35;;
20287;SDS011;10303;51.960;8.372;2023-06-10T14:38:10;3.55;;;3.35;;
20287;SDS011;10303;51.960;8.372;2023-06-10T14:40:36;3.17;;;2.97;;
20287;SDS011;10303;51.960;8.372;2023-06-10T14:43:02;4.18;;;2.97;;
20287;SDS011;10303;51.960;8.372;2023-06-10T14:45:34;3.78;;;3.58;;
20287;SDS011;10303;51.960;8.372;2023-06-10T14:48:06;5.15;;;3.55;;
20287;SDS011;10303;51.960;8.372;2023-06-10T14:50:36;3.22;;;2.97;;
20287;SDS011;10303;51.960;8.372;2023-06-10T14:53:02;4.20;;;3.88;;
20287;SDS011;10303;51.960;8.372;2023-06-10T14:55:28;4.20;;;3.80;;
20287;SDS011;10303;51.960;8.372;2023-06-10T14:57:54;4.05;;;3.75;;
20287;SDS011;10303;51.960;8.372;2023-06-10T15:00:22;4.13;;;3.53;;
20287;SDS011;10303;51.960;8.372;2023-06-10T15:02:50;3.45;;;3.20;;
20287;SDS011;10303;51.960;8.372;2023-06-10T15:05:17;4.20;;;3.90;;
20287;SDS011;10303;51.960;8.372;2023-06-10T15:07:46;3.47;;;3.28;;
20287;SDS011;10303;51.960;8.372;2023-06-10T15:10:14;3.72;;;3.53;;
20287;SDS011;10303;51.960;8.372;2023-06-10T15:12:41;3.20;;;3.00;;
20287;SDS011;10303;51.960;8.372;2023-06-10T15:15:07;3.88;;;3.67;;
20287;SDS011;10303;51.960;8.372;2023-06-10T15:17:33;4.15;;;3.83;;
20287;SDS011;10303;51.960;8.372;2023-06-10T15:19:59;3.80;;;3.60;;
20287;SDS011;10303;51.960;8.372;2023-06-10T15:22:26;4.72;;;4.43;;
20287;SDS011;10303;51.960;8.372;2023-06-10T15:24:52;4.03;;;3.83;;
20287;SDS011;10303;51.960;8.372;2023-06-10T15:27:19;3.88;;;3.45;;
20287;SDS011;10303;51.960;8.372;2023-06-10T15:29:45;3.90;;;3.55;;
20287;SDS011;10303;51.960;8.372;2023-06-10T15:32:12;4.50;;;4.20;;